sensor_id;sensor_type;location;lat;lon;timestamp;P1;durP1;ratioP1;P2;durP2;ratioP2
11283;SDS011;5698;47.332;11.180;2023-04-22T00:00:56;2.80;;;0.80;;
11283;SDS011;5698;47.332;11.180;2023-04-22T00:03:24;1.53;;;0.80;;
11283;SDS011;5698;47.332;11.180;2023-04-22T00:05:52;0.83;;;0.83;;
11283;SDS011;5698;47.332;11.180;2023-04-22T00:08:19;0.77;;;0.70;;
11283;SDS011;5698;47.332;11.180;2023-04-22T00:10:46;2.30;;;0.90;;
11283;SDS011;5698;47.332;11.180;2023-04-22T00:13:13;0.80;;;0.80;;
11283;SDS011;5698;47.332;11.180;2023-04-22T00:15:40;0.87;;;0.87;;
11283;SDS011;5698;47.332;11.180;2023-04-22T00:18:07;0.97;;;0.97;;
11283;SDS011;5698;47.332;11.180;2023-04-22T00:20:39;0.90;;;0.70;;
11283;SDS011;5698;47.332;11.180;2023-04-22T00:23:06;0.80;;;0.80;;
11283;SDS011;5698;47.332;11.180;2023-04-22T00:25:33;0.83;;;0.83;;
11283;SDS011;5698;47.332;11.180;2023-04-22T00:28:00;1.03;;;1.00;;
11283;SDS011;5698;47.332;11.180;2023-04-22T00:30:27;1.90;;;0.80;;
11283;SDS011;5698;47.332;11.180;2023-04-22T00:32:54;1.00;;;0.80;;
11283;SDS011;5698;47.332;11.180;2023-04-22T00:35:21;0.70;;;0.70;;
11283;SDS011;5698;47.332;11.180;2023-04-22T00:37:50;0.73;;;0.70;;
11283;SDS011;5698;47.332;11.180;2023-04-22T00:40:17;0.70;;;0.70;;
11283;SDS011;5698;47.332;11.180;2023-04-22T00:42:45;1.37;;;0.90;;
11283;SDS011;5698;47.332;11.180;2023-04-22T00:45:15;0.97;;;0.80;;
11283;SDS011;5698;47.332;11.180;2023-04-22T00:47:43;0.73;;;0.73;;
11283;SDS011;5698;47.332;11.180;2023-04-22T00:50:10;0.83;;;0.83;;
11283;SDS011;5698;47.332;11.180;2023-04-22T00:52:37;0.70;;;0.70;;
11283;SDS011;5698;47.332;11.180;2023-04-22T00:55:06;0.80;;;0.80;;
11283;SDS011;5698;47.332;11.180;2023-04-22T00:57:34;0.90;;;0.77;;
11283;SDS011;5698;47.332;11.180;2023-04-22T01:00:01;0.97;;;0.90;;
11283;SDS011;5698;47.332;11.180;2023-04-22T01:02:29;1.20;;;1.00;;
11283;SDS011;5698;47.332;11.180;2023-04-22T01:04:56;0.77;;;0.77;;
11283;SDS011;5698;47.332;11.180;2023-04-22T01:07:23;0.80;;;0.80;;
11283;SDS011;5698;47.332;11.180;2023-04-22T01:09:50;0.90;;;0.90;;
11283;SDS011;5698;47.332;11.180;2023-04-22T01:12:19;0.80;;;0.80;;
11283;SDS011;5698;47.332;11.180;2023-04-22T01:14:46;0.80;;;0.80;;
11283;SDS011;5698;47.332;11.180;2023-04-22T01:17:14;0.80;;;0.80;;
11283;SDS011;5698;47.332;11.180;2023-04-22T01:19:43;0.80;;;0.80;;
11283;SDS011;5698;47.332;11.180;2023-04-22T01:22:11;0.90;;;0.90;;
11283;SDS011;5698;47.332;11.180;2023-04-22T01:24:40;0.90;;;0.90;;
11283;SDS011;5698;47.332;11.180;2023-04-22T01:27:07;1.87;;;0.80;;
11283;SDS011;5698;47.332;11.180;2023-04-22T01:29:35;0.73;;;0.73;;
11283;SDS011;5698;47.332;11.180;2023-04-22T01:32:02;0.83;;;0.83;;
11283;SDS011;5698;47.332;11.180;2023-04-22T01:34:30;0.80;;;0.80;;
11283;SDS011;5698;47.332;11.180;2023-04-22T01:36:57;0.93;;;0.90;;
11283;SDS011;5698;47.332;11.180;2023-04-22T01:39:24;1.10;;;1.00;;
11283;SDS011;5698;47.332;11.180;2023-04-22T01:41:53;0.67;;;0.67;;
11283;SDS011;5698;47.332;11.180;2023-04-22T01:44:22;0.73;;;0.70;;
11283;SDS011;5698;47.332;11.180;2023-04-22T01:46:49;0.80;;;0.80;;
11283;SDS011;5698;47.332;11.180;2023-04-22T01:49:16;0.87;;;0.80;;
11283;SDS011;5698;47.332;11.180;2023-04-22T01:51:43;0.70;;;0.70;;
11283;SDS011;5698;47.332;11.180;2023-04-22T01:54:10;0.60;;;0.60;;
11283;SDS011;5698;47.332;11.180;2023-04-22T01:56:37;0.70;;;0.70;;
11283;SDS011;5698;47.332;11.180;2023-04-22T01:59:06;0.77;;;0.77;;
11283;SDS011;5698;47.332;11.180;2023-04-22T02:01:33;0.90;;;0.90;;
11283;SDS011;5698;47.332;11.180;2023-04-22T02:04:00;1.30;;;1.00;;
11283;SDS011;5698;47.332;11.180;2023-04-22T02:06:27;1.00;;;0.90;;
11283;SDS011;5698;47.332;11.180;2023-04-22T02:08:55;0.90;;;0.90;;
11283;SDS011;5698;47.332;11.180;2023-04-22T02:11:22;0.90;;;0.90;;
11283;SDS011;5698;47.332;11.180;2023-04-22T02:13:49;0.70;;;0.70;;
11283;SDS011;5698;47.332;11.180;2023-04-22T02:16:17;0.80;;;0.80;;
11283;SDS011;5698;47.332;11.180;2023-04-22T02:18:44;2.20;;;0.73;;
11283;SDS011;5698;47.332;11.180;2023-04-22T02:21:11;0.80;;;0.80;;
11283;SDS011;5698;47.332;11.180;2023-04-22T02:23:38;1.10;;;1.00;;
11283;SDS011;5698;47.332;11.180;2023-04-22T02:26:06;0.93;;;0.80;;
11283;SDS011;5698;47.332;11.180;2023-04-22T02:28:33;1.30;;;0.90;;
11283;SDS011;5698;47.332;11.180;2023-04-22T02:31:00;0.77;;;0.77;;
11283;SDS011;5698;47.332;11.180;2023-04-22T02:33:28;0.60;;;0.60;;
11283;SDS011;5698;47.332;11.180;2023-04-22T02:35:55;1.20;;;1.10;;
11283;SDS011;5698;47.332;11.180;2023-04-22T02:41:44;1.07;;;0.83;;
11283;SDS011;5698;47.332;11.180;2023-04-22T02:44:11;0.77;;;0.77;;
11283;SDS011;5698;47.332;11.180;2023-04-22T02:46:38;1.37;;;0.80;;
11283;SDS011;5698;47.332;11.180;2023-04-22T02:49:07;1.83;;;1.00;;
11283;SDS011;5698;47.332;11.180;2023-04-22T02:51:36;0.70;;;0.70;;
11283;SDS011;5698;47.332;11.180;2023-04-22T02:54:03;0.80;;;0.80;;
11283;SDS011;5698;47.332;11.180;2023-04-22T02:56:30;0.80;;;0.80;;
11283;SDS011;5698;47.332;11.180;2023-04-22T02:58:57;0.83;;;0.83;;
11283;SDS011;5698;47.332;11.180;2023-04-22T03:01:24;1.93;;;1.00;;
11283;SDS011;5698;47.332;11.180;2023-04-22T03:03:51;0.80;;;0.80;;
11283;SDS011;5698;47.332;11.180;2023-04-22T03:06:19;1.20;;;0.90;;
11283;SDS011;5698;47.332;11.180;2023-04-22T03:08:46;1.03;;;0.97;;
11283;SDS011;5698;47.332;11.180;2023-04-22T03:11:13;0.80;;;0.80;;
11283;SDS011;5698;47.332;11.180;2023-04-22T03:13:40;1.03;;;0.93;;
11283;SDS011;5698;47.332;11.180;2023-04-22T03:16:07;1.80;;;0.77;;
11283;SDS011;5698;47.332;11.180;2023-04-22T03:18:34;0.80;;;0.80;;
11283;SDS011;5698;47.332;11.180;2023-04-22T03:21:01;0.90;;;0.83;;
11283;SDS011;5698;47.332;11.180;2023-04-22T03:23:29;1.37;;;0.83;;
11283;SDS011;5698;47.332;11.180;2023-04-22T03:25:56;1.70;;;0.90;;
11283;SDS011;5698;47.332;11.180;2023-04-22T03:28:23;1.73;;;1.10;;
11283;SDS011;5698;47.332;11.180;2023-04-22T03:30:50;1.20;;;1.10;;
11283;SDS011;5698;47.332;11.180;2023-04-22T03:33:17;1.00;;;0.80;;
11283;SDS011;5698;47.332;11.180;2023-04-22T03:35:46;1.20;;;1.03;;
11283;SDS011;5698;47.332;11.180;2023-04-22T03:38:13;1.03;;;0.93;;
11283;SDS011;5698;47.332;11.180;2023-04-22T03:40:42;0.93;;;0.80;;
11283;SDS011;5698;47.332;11.180;2023-04-22T03:43:09;1.43;;;1.10;;
11283;SDS011;5698;47.332;11.180;2023-04-22T03:45:36;1.00;;;0.90;;
11283;SDS011;5698;47.332;11.180;2023-04-22T03:48:03;1.03;;;0.93;;
11283;SDS011;5698;47.332;11.180;2023-04-22T03:50:30;0.80;;;0.80;;
11283;SDS011;5698;47.332;11.180;2023-04-22T03:52:57;0.80;;;0.80;;
11283;SDS011;5698;47.332;11.180;2023-04-22T03:55:24;1.67;;;1.00;;
11283;SDS011;5698;47.332;11.180;2023-04-22T03:57:52;1.07;;;0.97;;
11283;SDS011;5698;47.332;11.180;2023-04-22T04:00:19;0.93;;;0.90;;
11283;SDS011;5698;47.332;11.180;2023-04-22T04:02:47;1.30;;;1.13;;
11283;SDS011;5698;47.332;11.180;2023-04-22T04:05:14;0.80;;;0.80;;
11283;SDS011;5698;47.332;11.180;2023-04-22T04:07:41;1.10;;;1.07;;
11283;SDS011;5698;47.332;11.180;2023-04-22T04:10:08;1.20;;;1.10;;
11283;SDS011;5698;47.332;11.180;2023-04-22T04:12:36;1.77;;;0.90;;
11283;SDS011;5698;47.332;11.180;2023-04-22T04:15:05;1.47;;;1.17;;
11283;SDS011;5698;47.332;11.180;2023-04-22T04:17:32;1.50;;;1.30;;
11283;SDS011;5698;47.332;11.180;2023-04-22T04:20:00;0.90;;;0.90;;
11283;SDS011;5698;47.332;11.180;2023-04-22T04:22:27;1.10;;;1.00;;
11283;SDS011;5698;47.332;11.180;2023-04-22T04:24:54;1.20;;;1.00;;
11283;SDS011;5698;47.332;11.180;2023-04-22T04:27:21;1.03;;;1.00;;
11283;SDS011;5698;47.332;11.180;2023-04-22T04:29:48;1.00;;;0.90;;
11283;SDS011;5698;47.332;11.180;2023-04-22T04:32:18;1.37;;;0.97;;
11283;SDS011;5698;47.332;11.180;2023-04-22T04:34:45;1.13;;;1.03;;
11283;SDS011;5698;47.332;11.180;2023-04-22T04:37:12;1.30;;;1.20;;
11283;SDS011;5698;47.332;11.180;2023-04-22T04:39:40;1.10;;;1.03;;
11283;SDS011;5698;47.332;11.180;2023-04-22T04:42:07;1.27;;;1.17;;
11283;SDS011;5698;47.332;11.180;2023-04-22T04:44:36;1.07;;;0.93;;
11283;SDS011;5698;47.332;11.180;2023-04-22T04:47:03;0.80;;;0.80;;
11283;SDS011;5698;47.332;11.180;2023-04-22T04:49:32;0.93;;;0.90;;
11283;SDS011;5698;47.332;11.180;2023-04-22T04:52:03;1.57;;;0.90;;
11283;SDS011;5698;47.332;11.180;2023-04-22T04:54:31;0.80;;;0.80;;
11283;SDS011;5698;47.332;11.180;2023-04-22T04:56:58;1.00;;;0.90;;
11283;SDS011;5698;47.332;11.180;2023-04-22T04:59:26;2.83;;;1.30;;
11283;SDS011;5698;47.332;11.180;2023-04-22T05:01:52;0.97;;;0.97;;
11283;SDS011;5698;47.332;11.180;2023-04-22T05:04:20;2.63;;;1.60;;
11283;SDS011;5698;47.332;11.180;2023-04-22T05:06:48;3.60;;;1.60;;
11283;SDS011;5698;47.332;11.180;2023-04-22T05:09:15;3.03;;;1.63;;
11283;SDS011;5698;47.332;11.180;2023-04-22T05:11:42;1.70;;;1.60;;
11283;SDS011;5698;47.332;11.180;2023-04-22T05:14:09;3.47;;;1.53;;
11283;SDS011;5698;47.332;11.180;2023-04-22T05:16:36;2.00;;;1.40;;
11283;SDS011;5698;47.332;11.180;2023-04-22T05:19:03;3.20;;;1.67;;
11283;SDS011;5698;47.332;11.180;2023-04-22T05:21:30;3.27;;;2.30;;
11283;SDS011;5698;47.332;11.180;2023-04-22T05:23:58;3.43;;;2.00;;
11283;SDS011;5698;47.332;11.180;2023-04-22T05:26:26;3.33;;;1.50;;
11283;SDS011;5698;47.332;11.180;2023-04-22T05:28:52;1.37;;;1.27;;
11283;SDS011;5698;47.332;11.180;2023-04-22T05:31:19;1.03;;;0.97;;
11283;SDS011;5698;47.332;11.180;2023-04-22T05:33:46;1.07;;;0.87;;
11283;SDS011;5698;47.332;11.180;2023-04-22T05:36:13;1.00;;;0.93;;
11283;SDS011;5698;47.332;11.180;2023-04-22T05:38:40;0.90;;;0.90;;
11283;SDS011;5698;47.332;11.180;2023-04-22T05:41:08;2.00;;;1.00;;
11283;SDS011;5698;47.332;11.180;2023-04-22T05:43:35;1.57;;;1.47;;
11283;SDS011;5698;47.332;11.180;2023-04-22T05:46:02;1.30;;;1.20;;
11283;SDS011;5698;47.332;11.180;2023-04-22T05:48:29;1.90;;;1.20;;
11283;SDS011;5698;47.332;11.180;2023-04-22T05:50:56;1.20;;;1.10;;
11283;SDS011;5698;47.332;11.180;2023-04-22T05:53:23;1.83;;;1.20;;
11283;SDS011;5698;47.332;11.180;2023-04-22T05:55:50;1.00;;;0.90;;
11283;SDS011;5698;47.332;11.180;2023-04-22T05:58:18;3.00;;;1.53;;
11283;SDS011;5698;47.332;11.180;2023-04-22T06:00:45;1.20;;;1.10;;
11283;SDS011;5698;47.332;11.180;2023-04-22T06:03:12;1.40;;;1.30;;
11283;SDS011;5698;47.332;11.180;2023-04-22T06:05:39;0.80;;;0.80;;
11283;SDS011;5698;47.332;11.180;2023-04-22T06:08:08;0.90;;;0.90;;
11283;SDS011;5698;47.332;11.180;2023-04-22T06:10:35;0.80;;;0.80;;
11283;SDS011;5698;47.332;11.180;2023-04-22T06:13:02;2.13;;;1.10;;
11283;SDS011;5698;47.332;11.180;2023-04-22T06:15:30;0.90;;;0.90;;
11283;SDS011;5698;47.332;11.180;2023-04-22T06:17:59;1.23;;;1.00;;
11283;SDS011;5698;47.332;11.180;2023-04-22T06:20:25;0.80;;;0.80;;
11283;SDS011;5698;47.332;11.180;2023-04-22T06:22:52;1.27;;;1.03;;
11283;SDS011;5698;47.332;11.180;2023-04-22T06:25:20;0.73;;;0.73;;
11283;SDS011;5698;47.332;11.180;2023-04-22T06:27:47;1.43;;;1.10;;
11283;SDS011;5698;47.332;11.180;2023-04-22T06:30:14;1.23;;;1.00;;
11283;SDS011;5698;47.332;11.180;2023-04-22T06:32:42;1.00;;;0.97;;
11283;SDS011;5698;47.332;11.180;2023-04-22T06:35:09;0.80;;;0.80;;
11283;SDS011;5698;47.332;11.180;2023-04-22T06:37:36;1.07;;;0.93;;
11283;SDS011;5698;47.332;11.180;2023-04-22T06:40:03;1.00;;;0.93;;
11283;SDS011;5698;47.332;11.180;2023-04-22T06:42:31;0.70;;;0.70;;
11283;SDS011;5698;47.332;11.180;2023-04-22T06:44:58;2.23;;;1.00;;
11283;SDS011;5698;47.332;11.180;2023-04-22T06:47:25;1.00;;;0.90;;
11283;SDS011;5698;47.332;11.180;2023-04-22T06:49:53;0.80;;;0.80;;
11283;SDS011;5698;47.332;11.180;2023-04-22T06:52:20;1.10;;;0.80;;
11283;SDS011;5698;47.332;11.180;2023-04-22T06:54:47;4.33;;;1.00;;
11283;SDS011;5698;47.332;11.180;2023-04-22T06:57:14;0.80;;;0.80;;
11283;SDS011;5698;47.332;11.180;2023-04-22T06:59:41;0.90;;;0.90;;
11283;SDS011;5698;47.332;11.180;2023-04-22T07:02:08;1.03;;;0.90;;
11283;SDS011;5698;47.332;11.180;2023-04-22T07:04:35;1.37;;;0.90;;
11283;SDS011;5698;47.332;11.180;2023-04-22T07:07:03;2.80;;;0.93;;
11283;SDS011;5698;47.332;11.180;2023-04-22T07:09:30;1.53;;;0.77;;
11283;SDS011;5698;47.332;11.180;2023-04-22T07:11:57;0.80;;;0.80;;
11283;SDS011;5698;47.332;11.180;2023-04-22T07:14:25;0.70;;;0.70;;
11283;SDS011;5698;47.332;11.180;2023-04-22T07:16:52;0.70;;;0.70;;
11283;SDS011;5698;47.332;11.180;2023-04-22T07:19:19;0.80;;;0.80;;
11283;SDS011;5698;47.332;11.180;2023-04-22T07:21:46;0.90;;;0.90;;
11283;SDS011;5698;47.332;11.180;2023-04-22T07:24:15;0.97;;;0.93;;
11283;SDS011;5698;47.332;11.180;2023-04-22T07:26:42;0.70;;;0.70;;
11283;SDS011;5698;47.332;11.180;2023-04-22T07:29:09;1.10;;;1.00;;
11283;SDS011;5698;47.332;11.180;2023-04-22T07:31:37;1.80;;;0.80;;
11283;SDS011;5698;47.332;11.180;2023-04-22T07:34:04;0.77;;;0.77;;
11283;SDS011;5698;47.332;11.180;2023-04-22T07:36:31;1.00;;;0.90;;
11283;SDS011;5698;47.332;11.180;2023-04-22T07:38:58;0.87;;;0.77;;
11283;SDS011;5698;47.332;11.180;2023-04-22T07:41:26;0.70;;;0.70;;
11283;SDS011;5698;47.332;11.180;2023-04-22T07:43:53;0.70;;;0.70;;
11283;SDS011;5698;47.332;11.180;2023-04-22T07:46:20;0.70;;;0.70;;
11283;SDS011;5698;47.332;11.180;2023-04-22T07:48:47;1.30;;;0.90;;
11283;SDS011;5698;47.332;11.180;2023-04-22T07:51:14;1.10;;;0.83;;
11283;SDS011;5698;47.332;11.180;2023-04-22T07:53:41;0.77;;;0.70;;
11283;SDS011;5698;47.332;11.180;2023-04-22T07:56:08;0.70;;;0.70;;
11283;SDS011;5698;47.332;11.180;2023-04-22T07:58:36;0.70;;;0.70;;
11283;SDS011;5698;47.332;11.180;2023-04-22T08:01:03;0.70;;;0.70;;
11283;SDS011;5698;47.332;11.180;2023-04-22T08:03:30;0.90;;;0.80;;
11283;SDS011;5698;47.332;11.180;2023-04-22T08:05:57;0.60;;;0.60;;
11283;SDS011;5698;47.332;11.180;2023-04-22T08:08:24;0.80;;;0.80;;
11283;SDS011;5698;47.332;11.180;2023-04-22T08:10:52;1.07;;;0.70;;
11283;SDS011;5698;47.332;11.180;2023-04-22T08:13:19;0.70;;;0.70;;
11283;SDS011;5698;47.332;11.180;2023-04-22T08:15:47;1.13;;;0.80;;
11283;SDS011;5698;47.332;11.180;2023-04-22T08:18:14;0.70;;;0.70;;
11283;SDS011;5698;47.332;11.180;2023-04-22T08:20:41;0.60;;;0.60;;
11283;SDS011;5698;47.332;11.180;2023-04-22T08:23:08;0.90;;;0.90;;
11283;SDS011;5698;47.332;11.180;2023-04-22T08:25:36;0.70;;;0.70;;
11283;SDS011;5698;47.332;11.180;2023-04-22T08:28:03;0.80;;;0.80;;
11283;SDS011;5698;47.332;11.180;2023-04-22T08:30:30;0.70;;;0.70;;
11283;SDS011;5698;47.332;11.180;2023-04-22T08:32:58;0.87;;;0.80;;
11283;SDS011;5698;47.332;11.180;2023-04-22T08:35:25;0.83;;;0.67;;
11283;SDS011;5698;47.332;11.180;2023-04-22T08:37:52;1.00;;;0.70;;
11283;SDS011;5698;47.332;11.180;2023-04-22T08:40:19;1.23;;;0.77;;
11283;SDS011;5698;47.332;11.180;2023-04-22T08:42:46;2.20;;;0.70;;
11283;SDS011;5698;47.332;11.180;2023-04-22T08:45:13;0.60;;;0.60;;
11283;SDS011;5698;47.332;11.180;2023-04-22T08:47:41;0.80;;;0.80;;
11283;SDS011;5698;47.332;11.180;2023-04-22T08:50:11;0.50;;;0.50;;
11283;SDS011;5698;47.332;11.180;2023-04-22T08:52:38;1.13;;;1.03;;
11283;SDS011;5698;47.332;11.180;2023-04-22T08:55:07;1.10;;;1.00;;
11283;SDS011;5698;47.332;11.180;2023-04-22T08:57:34;1.00;;;0.90;;
11283;SDS011;5698;47.332;11.180;2023-04-22T09:00:03;1.90;;;0.70;;
11283;SDS011;5698;47.332;11.180;2023-04-22T09:02:31;0.63;;;0.60;;
11283;SDS011;5698;47.332;11.180;2023-04-22T09:04:59;0.70;;;0.60;;
11283;SDS011;5698;47.332;11.180;2023-04-22T09:07:29;0.80;;;0.80;;
11283;SDS011;5698;47.332;11.180;2023-04-22T09:09:57;0.60;;;0.60;;
11283;SDS011;5698;47.332;11.180;2023-04-22T09:12:25;0.70;;;0.70;;
11283;SDS011;5698;47.332;11.180;2023-04-22T09:14:52;3.60;;;1.17;;
11283;SDS011;5698;47.332;11.180;2023-04-22T09:17:28;0.70;;;0.70;;
11283;SDS011;5698;47.332;11.180;2023-04-22T09:19:57;0.83;;;0.70;;
11283;SDS011;5698;47.332;11.180;2023-04-22T09:22:25;1.47;;;0.80;;
11283;SDS011;5698;47.332;11.180;2023-04-22T09:24:53;0.60;;;0.60;;
11283;SDS011;5698;47.332;11.180;2023-04-22T09:27:22;1.63;;;0.60;;
11283;SDS011;5698;47.332;11.180;2023-04-22T09:29:50;1.47;;;0.80;;
11283;SDS011;5698;47.332;11.180;2023-04-22T09:32:17;0.80;;;0.70;;
11283;SDS011;5698;47.332;11.180;2023-04-22T09:34:48;0.50;;;0.50;;
11283;SDS011;5698;47.332;11.180;2023-04-22T09:37:19;0.77;;;0.60;;
11283;SDS011;5698;47.332;11.180;2023-04-22T09:39:49;0.70;;;0.60;;
11283;SDS011;5698;47.332;11.180;2023-04-22T09:42:18;1.63;;;0.60;;
11283;SDS011;5698;47.332;11.180;2023-04-22T09:44:46;1.50;;;1.00;;
11283;SDS011;5698;47.332;11.180;2023-04-22T09:47:13;3.03;;;0.80;;
11283;SDS011;5698;47.332;11.180;2023-04-22T09:49:44;0.70;;;0.60;;
11283;SDS011;5698;47.332;11.180;2023-04-22T09:52:19;1.00;;;0.70;;
11283;SDS011;5698;47.332;11.180;2023-04-22T09:54:48;2.27;;;0.60;;
11283;SDS011;5698;47.332;11.180;2023-04-22T09:57:17;1.03;;;0.70;;
11283;SDS011;5698;47.332;11.180;2023-04-22T09:59:45;1.80;;;0.97;;
11283;SDS011;5698;47.332;11.180;2023-04-22T10:02:15;2.53;;;0.73;;
11283;SDS011;5698;47.332;11.180;2023-04-22T10:04:42;1.93;;;0.60;;
11283;SDS011;5698;47.332;11.180;2023-04-22T10:07:09;0.80;;;0.80;;
11283;SDS011;5698;47.332;11.180;2023-04-22T10:09:36;0.80;;;0.80;;
11283;SDS011;5698;47.332;11.180;2023-04-22T10:12:03;2.43;;;0.80;;
11283;SDS011;5698;47.332;11.180;2023-04-22T10:14:32;1.03;;;0.60;;
11283;SDS011;5698;47.332;11.180;2023-04-22T10:16:59;0.53;;;0.53;;
11283;SDS011;5698;47.332;11.180;2023-04-22T10:19:28;1.07;;;0.60;;
11283;SDS011;5698;47.332;11.180;2023-04-22T10:21:57;1.13;;;0.77;;
11283;SDS011;5698;47.332;11.180;2023-04-22T10:24:28;1.77;;;0.80;;
11283;SDS011;5698;47.332;11.180;2023-04-22T10:27:02;1.03;;;0.80;;
11283;SDS011;5698;47.332;11.180;2023-04-22T10:29:35;0.90;;;0.60;;
11283;SDS011;5698;47.332;11.180;2023-04-22T10:32:04;1.10;;;0.90;;
11283;SDS011;5698;47.332;11.180;2023-04-22T10:34:49;0.73;;;0.70;;
11283;SDS011;5698;47.332;11.180;2023-04-22T10:37:31;0.70;;;0.70;;
11283;SDS011;5698;47.332;11.180;2023-04-22T10:40:05;2.13;;;1.00;;
11283;SDS011;5698;47.332;11.180;2023-04-22T10:42:35;3.53;;;0.83;;
11283;SDS011;5698;47.332;11.180;2023-04-22T10:45:06;1.60;;;0.90;;
11283;SDS011;5698;47.332;11.180;2023-04-22T10:47:37;1.33;;;1.00;;
11283;SDS011;5698;47.332;11.180;2023-04-22T10:52:57;1.13;;;0.83;;
11283;SDS011;5698;47.332;11.180;2023-04-22T10:55:47;1.50;;;0.80;;
11283;SDS011;5698;47.332;11.180;2023-04-22T10:58:17;1.07;;;0.90;;
11283;SDS011;5698;47.332;11.180;2023-04-22T11:00:46;1.83;;;0.97;;
11283;SDS011;5698;47.332;11.180;2023-04-22T11:03:17;1.40;;;0.97;;
11283;SDS011;5698;47.332;11.180;2023-04-22T11:05:57;1.27;;;1.17;;
11283;SDS011;5698;47.332;11.180;2023-04-22T11:08:40;2.50;;;1.00;;
11283;SDS011;5698;47.332;11.180;2023-04-22T11:11:10;1.80;;;0.90;;
11283;SDS011;5698;47.332;11.180;2023-04-22T11:13:39;1.50;;;1.00;;
11283;SDS011;5698;47.332;11.180;2023-04-22T11:16:09;1.47;;;0.80;;
11283;SDS011;5698;47.332;11.180;2023-04-22T11:18:36;1.00;;;0.80;;
11283;SDS011;5698;47.332;11.180;2023-04-22T11:21:04;1.37;;;1.10;;
11283;SDS011;5698;47.332;11.180;2023-04-22T11:23:33;2.33;;;1.00;;
11283;SDS011;5698;47.332;11.180;2023-04-22T11:26:02;1.87;;;0.90;;
11283;SDS011;5698;47.332;11.180;2023-04-22T11:28:30;1.00;;;0.90;;
11283;SDS011;5698;47.332;11.180;2023-04-22T11:31:01;1.40;;;0.93;;
11283;SDS011;5698;47.332;11.180;2023-04-22T11:33:30;2.07;;;1.00;;
11283;SDS011;5698;47.332;11.180;2023-04-22T11:35:58;4.50;;;1.10;;
11283;SDS011;5698;47.332;11.180;2023-04-22T11:38:25;2.00;;;1.33;;
11283;SDS011;5698;47.332;11.180;2023-04-22T11:40:53;3.23;;;1.00;;
11283;SDS011;5698;47.332;11.180;2023-04-22T11:43:21;2.83;;;1.27;;
11283;SDS011;5698;47.332;11.180;2023-04-22T11:45:49;2.90;;;1.10;;
11283;SDS011;5698;47.332;11.180;2023-04-22T11:48:16;1.87;;;1.10;;
11283;SDS011;5698;47.332;11.180;2023-04-22T11:50:44;1.13;;;0.90;;
11283;SDS011;5698;47.332;11.180;2023-04-22T11:53:12;1.63;;;1.00;;
11283;SDS011;5698;47.332;11.180;2023-04-22T11:55:41;2.33;;;1.10;;
11283;SDS011;5698;47.332;11.180;2023-04-22T11:58:09;3.43;;;1.60;;
11283;SDS011;5698;47.332;11.180;2023-04-22T12:00:39;2.90;;;1.20;;
11283;SDS011;5698;47.332;11.180;2023-04-22T12:03:11;1.27;;;1.17;;
11283;SDS011;5698;47.332;11.180;2023-04-22T12:05:40;2.27;;;1.27;;
11283;SDS011;5698;47.332;11.180;2023-04-22T12:08:10;2.53;;;1.20;;
11283;SDS011;5698;47.332;11.180;2023-04-22T12:10:39;2.10;;;1.27;;
11283;SDS011;5698;47.332;11.180;2023-04-22T12:13:07;1.37;;;1.10;;
11283;SDS011;5698;47.332;11.180;2023-04-22T12:15:38;5.03;;;1.53;;
11283;SDS011;5698;47.332;11.180;2023-04-22T12:18:06;2.07;;;1.50;;
11283;SDS011;5698;47.332;11.180;2023-04-22T12:20:34;2.10;;;1.30;;
11283;SDS011;5698;47.332;11.180;2023-04-22T12:23:02;4.20;;;1.30;;
11283;SDS011;5698;47.332;11.180;2023-04-22T12:25:30;2.53;;;1.47;;
11283;SDS011;5698;47.332;11.180;2023-04-22T12:27:58;1.67;;;1.30;;
11283;SDS011;5698;47.332;11.180;2023-04-22T12:30:26;2.43;;;1.10;;
11283;SDS011;5698;47.332;11.180;2023-04-22T12:32:53;2.43;;;1.30;;
11283;SDS011;5698;47.332;11.180;2023-04-22T12:35:20;2.33;;;1.00;;
11283;SDS011;5698;47.332;11.180;2023-04-22T12:37:47;2.00;;;1.30;;
11283;SDS011;5698;47.332;11.180;2023-04-22T12:40:15;1.73;;;1.03;;
11283;SDS011;5698;47.332;11.180;2023-04-22T12:42:43;2.03;;;1.10;;
11283;SDS011;5698;47.332;11.180;2023-04-22T12:45:10;1.80;;;1.40;;
11283;SDS011;5698;47.332;11.180;2023-04-22T12:47:37;1.83;;;1.10;;
11283;SDS011;5698;47.332;11.180;2023-04-22T12:50:05;4.67;;;1.23;;
11283;SDS011;5698;47.332;11.180;2023-04-22T12:52:33;2.50;;;1.00;;
11283;SDS011;5698;47.332;11.180;2023-04-22T12:55:00;2.93;;;1.20;;
11283;SDS011;5698;47.332;11.180;2023-04-22T12:57:28;2.60;;;1.40;;
11283;SDS011;5698;47.332;11.180;2023-04-22T12:59:57;4.57;;;1.30;;
11283;SDS011;5698;47.332;11.180;2023-04-22T13:02:24;1.70;;;1.23;;
11283;SDS011;5698;47.332;11.180;2023-04-22T13:04:51;2.50;;;1.33;;
11283;SDS011;5698;47.332;11.180;2023-04-22T13:07:18;1.83;;;1.07;;
11283;SDS011;5698;47.332;11.180;2023-04-22T13:09:45;2.47;;;1.30;;
11283;SDS011;5698;47.332;11.180;2023-04-22T13:12:13;2.07;;;1.07;;
11283;SDS011;5698;47.332;11.180;2023-04-22T13:14:40;1.87;;;1.20;;
11283;SDS011;5698;47.332;11.180;2023-04-22T13:17:08;2.50;;;1.10;;
11283;SDS011;5698;47.332;11.180;2023-04-22T13:19:35;1.70;;;1.40;;
11283;SDS011;5698;47.332;11.180;2023-04-22T13:22:02;2.70;;;1.20;;
11283;SDS011;5698;47.332;11.180;2023-04-22T13:24:29;1.43;;;0.93;;
11283;SDS011;5698;47.332;11.180;2023-04-22T13:26:56;2.07;;;1.23;;
11283;SDS011;5698;47.332;11.180;2023-04-22T13:29:24;1.17;;;1.00;;
11283;SDS011;5698;47.332;11.180;2023-04-22T13:31:51;2.70;;;1.30;;
11283;SDS011;5698;47.332;11.180;2023-04-22T13:34:19;2.67;;;1.60;;
11283;SDS011;5698;47.332;11.180;2023-04-22T13:36:46;1.90;;;1.17;;
11283;SDS011;5698;47.332;11.180;2023-04-22T13:39:13;2.50;;;1.50;;
11283;SDS011;5698;47.332;11.180;2023-04-22T13:41:41;2.10;;;1.40;;
11283;SDS011;5698;47.332;11.180;2023-04-22T13:44:09;3.77;;;1.30;;
11283;SDS011;5698;47.332;11.180;2023-04-22T13:46:37;1.70;;;1.17;;
11283;SDS011;5698;47.332;11.180;2023-04-22T13:49:04;2.93;;;1.50;;
11283;SDS011;5698;47.332;11.180;2023-04-22T13:51:32;4.10;;;1.20;;
11283;SDS011;5698;47.332;11.180;2023-04-22T13:54:01;1.67;;;1.10;;
11283;SDS011;5698;47.332;11.180;2023-04-22T13:56:29;1.40;;;1.10;;
11283;SDS011;5698;47.332;11.180;2023-04-22T13:58:56;1.47;;;1.17;;
11283;SDS011;5698;47.332;11.180;2023-04-22T14:01:23;2.10;;;1.10;;
11283;SDS011;5698;47.332;11.180;2023-04-22T14:03:51;3.03;;;1.60;;
11283;SDS011;5698;47.332;11.180;2023-04-22T14:06:19;2.83;;;1.50;;
11283;SDS011;5698;47.332;11.180;2023-04-22T14:08:47;1.47;;;1.10;;
11283;SDS011;5698;47.332;11.180;2023-04-22T14:11:14;2.00;;;1.20;;
11283;SDS011;5698;47.332;11.180;2023-04-22T14:13:41;2.53;;;1.00;;
11283;SDS011;5698;47.332;11.180;2023-04-22T14:16:09;2.20;;;1.23;;
11283;SDS011;5698;47.332;11.180;2023-04-22T14:18:37;1.63;;;1.27;;
11283;SDS011;5698;47.332;11.180;2023-04-22T14:21:05;1.20;;;1.10;;
11283;SDS011;5698;47.332;11.180;2023-04-22T14:23:34;3.47;;;1.03;;
11283;SDS011;5698;47.332;11.180;2023-04-22T14:26:03;4.87;;;1.40;;
11283;SDS011;5698;47.332;11.180;2023-04-22T14:28:30;2.47;;;1.13;;
11283;SDS011;5698;47.332;11.180;2023-04-22T14:30:57;1.77;;;1.00;;
11283;SDS011;5698;47.332;11.180;2023-04-22T14:33:25;2.20;;;1.27;;
11283;SDS011;5698;47.332;11.180;2023-04-22T14:35:53;1.47;;;1.00;;
11283;SDS011;5698;47.332;11.180;2023-04-22T14:38:21;1.57;;;1.00;;
11283;SDS011;5698;47.332;11.180;2023-04-22T14:40:48;4.73;;;1.20;;
11283;SDS011;5698;47.332;11.180;2023-04-22T14:43:17;2.07;;;1.10;;
11283;SDS011;5698;47.332;11.180;2023-04-22T14:45:45;4.73;;;1.70;;
11283;SDS011;5698;47.332;11.180;2023-04-22T14:48:12;3.10;;;1.20;;
11283;SDS011;5698;47.332;11.180;2023-04-22T14:50:39;3.70;;;1.40;;
11283;SDS011;5698;47.332;11.180;2023-04-22T14:53:07;2.33;;;1.07;;
11283;SDS011;5698;47.332;11.180;2023-04-22T14:55:34;1.53;;;1.10;;
11283;SDS011;5698;47.332;11.180;2023-04-22T14:58:01;1.57;;;1.40;;